createdAt,value
2019-04-14T00:00:03.359Z,4.26
2019-04-14T00:02:40.530Z,4.27
2019-04-14T00:05:08.432Z,4.10
2019-04-14T00:07:34.548Z,4.10
2019-04-14T00:10:00.784Z,4.16
2019-04-14T00:12:27.333Z,4.12
2019-04-14T00:14:53.452Z,4.17
2019-04-14T00:17:19.600Z,4.20
2019-04-14T00:19:45.733Z,4.19
2019-04-14T00:22:11.803Z,4.19
2019-04-14T00:24:38.117Z,4.01
2019-04-14T00:27:04.262Z,3.99
2019-04-14T00:29:30.637Z,4.01
2019-04-14T00:31:57.009Z,4.04
2019-04-14T00:34:35.224Z,4.12
2019-04-14T00:37:03.439Z,4.13
2019-04-14T00:39:31.596Z,4.12
2019-04-14T00:42:02.102Z,4.08
2019-04-14T00:44:47.399Z,4.04
2019-04-14T00:47:15.787Z,4.08
2019-04-14T00:49:41.983Z,4.14
2019-04-14T00:52:07.965Z,4.16
2019-04-14T00:54:34.623Z,4.07
2019-04-14T00:57:00.905Z,4.03
2019-04-14T00:59:27.036Z,4.06
2019-04-14T01:01:52.834Z,4.05
2019-04-14T01:04:18.757Z,3.92
2019-04-14T01:06:44.934Z,3.74
2019-04-14T01:09:13.070Z,3.74
2019-04-14T01:11:39.990Z,3.69
2019-04-14T01:14:06.113Z,3.80
2019-04-14T01:16:32.208Z,3.91
2019-04-14T01:18:58.285Z,3.99
2019-04-14T01:21:24.402Z,3.94
2019-04-14T01:23:50.242Z,3.98
2019-04-14T01:26:16.063Z,4.05
2019-04-14T01:28:41.947Z,3.93
2019-04-14T01:31:08.095Z,3.85
2019-04-14T01:33:33.907Z,3.71
2019-04-14T01:36:00.009Z,3.70
2019-04-14T01:38:26.096Z,3.68
2019-04-14T01:40:53.058Z,3.69
2019-04-14T01:43:18.996Z,3.70
2019-04-14T01:45:58.108Z,3.72
2019-04-14T01:48:12.808Z,3.77
2019-04-14T01:50:40.949Z,3.86
2019-04-14T01:53:09.675Z,3.91
2019-04-14T01:55:44.089Z,4.00
2019-04-14T01:58:14.669Z,4.03
2019-04-14T02:00:46.577Z,4.04
2019-04-14T02:03:12.828Z,4.06
2019-04-14T02:05:38.653Z,4.10
2019-04-14T02:08:04.563Z,4.03
2019-04-14T02:10:30.543Z,4.07
2019-04-14T02:12:56.589Z,3.98
2019-04-14T02:15:22.438Z,3.95
2019-04-14T02:17:48.495Z,3.85
2019-04-14T02:20:14.295Z,3.78
2019-04-14T02:22:40.092Z,3.66
2019-04-14T02:25:05.934Z,3.69
2019-04-14T02:27:32.020Z,3.89
2019-04-14T02:29:58.234Z,3.98
2019-04-14T02:32:49.418Z,3.88
2019-04-14T02:40:21.781Z,3.95
2019-04-14T02:42:42.038Z,3.95
2019-04-14T02:45:12.322Z,3.88
2019-04-14T02:50:05.364Z,3.81
2019-04-14T02:54:59.496Z,3.72
2019-04-14T02:57:30.261Z,3.80
2019-04-14T03:00:03.468Z,3.84
2019-04-14T03:04:50.638Z,3.79
2019-04-14T03:07:21.945Z,3.81
2019-04-14T03:12:16.435Z,3.91
2019-04-14T03:14:49.318Z,3.90
2019-04-14T03:17:24.795Z,3.95
2019-04-14T03:22:28.885Z,4.08
2019-04-14T03:25:00.483Z,3.89
2019-04-14T03:27:55.103Z,3.92
2019-04-14T03:30:33.605Z,3.85
2019-04-14T03:33:05.291Z,3.74
2019-04-14T03:35:35.775Z,3.77
2019-04-14T03:37:45.284Z,3.78
2019-04-14T03:40:15.949Z,3.87
2019-04-14T03:45:22.249Z,4.04
2019-04-14T03:47:25.757Z,4.02
2019-04-14T03:50:00.330Z,4.01
2019-04-14T03:52:34.964Z,4.03
2019-04-14T03:54:44.132Z,3.98
2019-04-14T03:56:55.805Z,3.79
2019-04-14T03:59:22.047Z,3.86
2019-04-14T04:01:49.943Z,3.90
2019-04-14T04:04:16.190Z,3.96
2019-04-14T04:06:42.312Z,3.86
2019-04-14T04:09:08.411Z,3.86
2019-04-14T04:11:34.526Z,3.92
2019-04-14T04:14:00.675Z,3.98
2019-04-14T04:16:29.052Z,4.05
2019-04-14T04:19:05.417Z,4.09
2019-04-14T04:21:44.369Z,4.07
2019-04-14T04:24:12.889Z,3.97
2019-04-14T04:26:43.514Z,3.80
2019-04-14T04:29:11.305Z,3.83
2019-04-14T04:31:52.539Z,3.82
2019-04-14T04:34:38.409Z,3.86
2019-04-14T04:37:14.991Z,3.88
2019-04-14T04:39:56.042Z,3.89
2019-04-14T04:42:22.245Z,3.85
2019-04-14T04:44:48.800Z,3.94
2019-04-14T04:47:14.944Z,3.98
2019-04-14T04:49:40.742Z,3.86
2019-04-14T04:52:06.563Z,3.91
2019-04-14T04:54:32.639Z,3.93
2019-04-14T04:56:58.449Z,4.01
2019-04-14T04:59:25.498Z,4.08
2019-04-14T05:01:51.656Z,3.98
2019-04-14T05:04:17.710Z,4.04
2019-04-14T05:06:50.614Z,4.04
2019-04-14T05:09:36.851Z,4.10
2019-04-14T05:12:24.269Z,4.12
2019-04-14T05:15:01.463Z,4.04
2019-04-14T05:17:29.867Z,3.93
2019-04-14T05:19:56.238Z,3.84
2019-04-14T05:22:22.394Z,3.88
2019-04-14T05:24:48.590Z,3.93
2019-04-14T05:27:14.627Z,3.95
2019-04-14T05:29:40.846Z,3.96
2019-04-14T05:32:06.702Z,3.96
2019-04-14T05:34:32.766Z,3.96
2019-04-14T05:36:58.574Z,3.94
2019-04-14T05:39:24.621Z,3.81
2019-04-14T05:42:00.518Z,3.85
2019-04-14T05:44:18.636Z,3.85
2019-04-14T05:46:44.729Z,3.80
2019-04-14T05:49:10.949Z,3.97
2019-04-14T05:51:39.135Z,4.03
2019-04-14T05:54:05.677Z,4.15
2019-04-14T05:56:32.570Z,4.17
2019-04-14T05:59:00.123Z,4.14
2019-04-14T06:01:26.972Z,4.26
2019-04-14T06:03:53.930Z,4.29
2019-04-14T06:06:19.811Z,4.38
2019-04-14T06:08:45.628Z,4.40
2019-04-14T06:11:11.442Z,4.33
2019-04-14T06:13:37.544Z,4.33
2019-04-14T06:16:03.343Z,4.38
2019-04-14T06:18:29.430Z,4.47
2019-04-14T06:20:55.247Z,4.62
2019-04-14T06:23:21.098Z,4.61
2019-04-14T06:25:47.153Z,4.58
2019-04-14T06:28:12.951Z,3.97
2019-04-14T06:30:56.057Z,4.58
2019-04-14T06:33:38.698Z,4.58
2019-04-14T06:36:06.699Z,4.42
2019-04-14T06:38:34.678Z,4.42
2019-04-14T06:41:02.393Z,4.55
2019-04-14T06:43:28.277Z,4.70
2019-04-14T06:45:54.181Z,4.79
2019-04-14T06:48:20.021Z,4.78
2019-04-14T06:50:46.631Z,4.66
2019-04-14T06:53:12.466Z,4.52
2019-04-14T06:55:38.319Z,4.60
2019-04-14T06:58:04.158Z,4.56
2019-04-14T07:00:30.279Z,4.58
2019-04-14T07:02:56.432Z,4.60
2019-04-14T07:05:22.237Z,4.54
2019-04-14T07:07:56.982Z,4.48
2019-04-14T07:10:15.757Z,4.48
2019-04-14T07:12:43.163Z,4.44
2019-04-14T07:15:09.708Z,4.54
2019-04-14T07:17:35.515Z,4.35
2019-04-14T07:20:02.672Z,4.40
2019-04-14T07:22:28.550Z,4.42
2019-04-14T07:24:54.594Z,4.41
2019-04-14T07:27:20.732Z,4.51
2019-04-14T07:29:51.253Z,4.53
2019-04-14T07:32:34.165Z,4.42
2019-04-14T07:35:04.415Z,4.40
2019-04-14T07:37:32.153Z,4.46
2019-04-14T07:40:03.170Z,4.26
2019-04-14T07:42:37.285Z,4.15
2019-04-14T07:45:22.705Z,4.16
2019-04-14T07:47:59.357Z,4.27
2019-04-14T07:50:29.847Z,4.47
2019-04-14T07:53:06.735Z,4.56
2019-04-14T07:55:37.097Z,4.51
2019-04-14T07:58:19.783Z,4.82
2019-04-14T08:00:47.499Z,4.95
2019-04-14T08:03:24.513Z,4.99
2019-04-14T08:05:50.340Z,5.13
2019-04-14T08:08:16.133Z,5.29
2019-04-14T08:10:41.919Z,5.52
2019-04-14T08:13:08.017Z,5.71
2019-04-14T08:15:33.829Z,5.89
2019-04-14T08:17:59.926Z,6.07
2019-04-14T08:20:27.772Z,6.23
2019-04-14T08:22:53.494Z,6.07
2019-04-14T08:25:19.321Z,5.91
2019-04-14T08:27:45.125Z,5.93
2019-04-14T08:30:11.055Z,6.14
2019-04-14T08:32:37.150Z,6.03
2019-04-14T08:35:04.924Z,6.26
2019-04-14T08:37:30.750Z,6.37
2019-04-14T08:40:33.583Z,6.61
2019-04-14T08:43:01.564Z,6.72
2019-04-14T08:45:41.350Z,6.74
2019-04-14T08:48:18.126Z,6.87
2019-04-14T08:50:46.137Z,7.04
2019-04-14T08:53:14.082Z,7.12
2019-04-14T08:55:41.830Z,7.26
2019-04-14T08:58:22.181Z,7.13
2019-04-14T09:00:49.874Z,7.44
2019-04-14T09:03:32.640Z,7.51
2019-04-14T09:06:00.656Z,7.48
2019-04-14T09:08:34.218Z,7.34
2019-04-14T09:11:05.168Z,7.37
2019-04-14T09:13:31.238Z,7.47
2019-04-14T09:15:57.272Z,7.70
2019-04-14T09:18:23.084Z,7.91
2019-04-14T09:20:52.564Z,8.25
2019-04-14T09:23:20.280Z,8.45
2019-04-14T09:25:46.455Z,8.35
2019-04-14T09:28:12.534Z,8.64
2019-04-14T09:30:38.331Z,8.78
2019-04-14T09:33:04.137Z,8.75
2019-04-14T09:35:30.227Z,8.70
2019-04-14T09:37:56.029Z,8.70
2019-04-14T09:40:24.629Z,8.70
2019-04-14T09:42:50.442Z,8.93
2019-04-14T09:45:18.868Z,8.97
2019-04-14T09:47:44.943Z,9.20
2019-04-14T09:50:13.790Z,9.14
2019-04-14T09:52:39.579Z,9.53
2019-04-14T09:55:10.302Z,9.72
2019-04-14T09:57:36.380Z,9.80
2019-04-14T10:00:05.738Z,9.86
2019-04-14T10:02:31.540Z,9.87
2019-04-14T10:05:00.461Z,9.90
2019-04-14T10:07:26.294Z,10.03
2019-04-14T10:09:52.184Z,9.95
2019-04-14T10:12:18.065Z,9.86
2019-04-14T10:14:43.825Z,10.08
2019-04-14T10:17:09.884Z,9.92
2019-04-14T10:19:35.697Z,9.43
2019-04-14T10:22:04.791Z,9.55
2019-04-14T10:24:30.574Z,9.70
2019-04-14T10:26:59.536Z,9.40
2019-04-14T10:29:25.347Z,9.34
2019-04-14T10:31:56.151Z,9.20
2019-04-14T10:34:21.945Z,9.04
2019-04-14T10:36:51.128Z,9.41
2019-04-14T10:39:16.929Z,9.92
2019-04-14T10:41:45.490Z,10.51
2019-04-14T10:44:11.321Z,11.24
2019-04-14T10:46:37.182Z,11.54
2019-04-14T10:49:02.988Z,11.60
2019-04-14T10:51:30.340Z,11.75
2019-04-14T10:53:57.079Z,12.09
2019-04-14T10:56:23.172Z,12.17
2019-04-14T10:58:52.307Z,12.63
2019-04-14T11:01:18.100Z,13.38
2019-04-14T11:03:46.654Z,13.71
2019-04-14T11:06:14.639Z,13.52
2019-04-14T11:08:40.450Z,12.87
2019-04-14T11:11:06.497Z,12.44
2019-04-14T11:13:35.387Z,11.93
2019-04-14T11:16:01.482Z,11.36
2019-04-14T11:18:28.975Z,11.61
2019-04-14T11:20:54.779Z,11.80
2019-04-14T11:23:20.599Z,11.71
2019-04-14T11:25:46.409Z,12.05
2019-04-14T11:28:12.297Z,12.09
2019-04-14T11:30:41.216Z,12.24
2019-04-14T11:33:08.957Z,12.24
2019-04-14T11:35:36.670Z,12.29
2019-04-14T11:38:13.734Z,12.84
2019-04-14T11:40:41.433Z,13.54
2019-04-14T11:43:07.537Z,13.53
2019-04-14T11:45:33.471Z,13.10
2019-04-14T11:47:59.290Z,12.84
2019-04-14T11:50:25.101Z,12.62
2019-04-14T11:52:50.904Z,12.81
2019-04-14T11:55:17.025Z,13.09
2019-04-14T11:57:42.827Z,13.30
2019-04-14T12:00:11.016Z,13.34
2019-04-14T12:02:41.488Z,13.38
2019-04-14T12:05:12.583Z,13.29
2019-04-14T12:07:52.254Z,13.48
2019-04-14T12:10:18.468Z,13.37
2019-04-14T12:12:44.566Z,13.45
2019-04-14T12:15:16.159Z,13.55
2019-04-14T12:17:38.585Z,13.46
2019-04-14T12:20:05.369Z,13.60
2019-04-14T12:22:32.189Z,13.70
2019-04-14T12:24:58.105Z,13.54
2019-04-14T12:27:23.914Z,13.03
2019-04-14T12:29:50.114Z,12.70
2019-04-14T12:32:17.212Z,12.47
2019-04-14T12:34:43.194Z,12.37
2019-04-14T12:37:09.007Z,12.51
2019-04-14T12:39:34.797Z,12.69
2019-04-14T12:42:14.746Z,12.90
2019-04-14T12:44:48.520Z,12.29
2019-04-14T12:47:25.161Z,12.49
2019-04-14T12:49:55.923Z,12.40
2019-04-14T12:52:23.658Z,12.70
2019-04-14T12:54:49.486Z,12.89
2019-04-14T12:57:17.209Z,13.23
2019-04-14T12:59:42.999Z,13.01
2019-04-14T13:02:13.736Z,12.85
2019-04-14T13:04:39.546Z,12.89
2019-04-14T13:07:05.326Z,13.19
2019-04-14T13:09:31.402Z,13.48
2019-04-14T13:11:57.214Z,13.71
2019-04-14T13:14:23.042Z,13.79
2019-04-14T13:16:49.040Z,13.61
2019-04-14T13:19:14.853Z,13.69
2019-04-14T13:21:40.670Z,13.69
2019-04-14T13:24:06.905Z,13.73
2019-04-14T13:26:32.709Z,13.57
2019-04-14T13:28:58.782Z,13.01
2019-04-14T13:31:25.219Z,12.76
2019-04-14T13:33:51.128Z,12.85
2019-04-14T13:36:16.942Z,12.81
2019-04-14T13:38:42.987Z,13.59
2019-04-14T13:41:09.087Z,13.83
2019-04-14T13:43:34.867Z,13.71
2019-04-14T13:46:01.068Z,13.47
2019-04-14T13:48:27.166Z,13.33
2019-04-14T13:50:52.995Z,13.24
2019-04-14T13:53:19.069Z,13.28
2019-04-14T13:55:45.137Z,13.92
2019-04-14T13:58:11.220Z,13.89
2019-04-14T14:00:37.026Z,13.63
2019-04-14T14:03:02.922Z,13.61
2019-04-14T14:05:28.938Z,13.40
2019-04-14T14:07:54.751Z,13.44
2019-04-14T14:10:20.656Z,13.39
2019-04-14T14:12:51.399Z,13.17
2019-04-14T14:15:36.004Z,13.03
2019-04-14T14:18:22.347Z,13.15
2019-04-14T14:20:50.112Z,13.12
2019-04-14T14:23:27.902Z,12.87
2019-04-14T14:26:01.826Z,13.09
2019-04-14T14:28:27.622Z,13.15
2019-04-14T14:30:53.423Z,13.21
2019-04-14T14:33:19.244Z,13.37
2019-04-14T14:35:45.059Z,13.04
2019-04-14T14:38:10.883Z,13.29
2019-04-14T14:40:36.673Z,13.07
2019-04-14T14:43:05.599Z,13.15
2019-04-14T14:45:42.610Z,13.24
2019-04-14T14:48:13.327Z,13.37
2019-04-14T14:50:41.055Z,13.40
2019-04-14T14:53:12.306Z,13.35
2019-04-14T14:55:34.571Z,13.55
2019-04-14T14:58:00.669Z,14.07
2019-04-14T15:00:28.719Z,14.39
2019-04-14T15:02:54.550Z,14.94
2019-04-14T15:05:20.318Z,15.26
2019-04-14T15:07:46.103Z,14.79
2019-04-14T15:10:12.025Z,14.17
2019-04-14T15:12:38.103Z,13.94
2019-04-14T15:15:05.855Z,13.50
2019-04-14T15:17:31.907Z,13.60
2019-04-14T15:19:57.714Z,14.09
2019-04-14T15:22:23.533Z,14.58
2019-04-14T15:24:49.358Z,15.30
2019-04-14T15:27:15.284Z,15.58
2019-04-14T15:29:41.337Z,15.98
2019-04-14T15:32:07.435Z,16.05
2019-04-14T15:34:33.485Z,15.67
2019-04-14T15:36:59.291Z,15.40
2019-04-14T15:39:25.146Z,15.44
2019-04-14T15:41:54.314Z,15.24
2019-04-14T15:44:20.149Z,14.82
2019-04-14T15:46:46.266Z,14.25
2019-04-14T15:49:12.077Z,13.89
2019-04-14T15:51:43.041Z,13.18
2019-04-14T15:54:09.168Z,12.92
2019-04-14T15:56:45.681Z,13.03
2019-04-14T15:59:13.432Z,13.30
2019-04-14T16:01:50.781Z,13.78
2019-04-14T16:04:27.580Z,13.82
2019-04-14T16:06:55.262Z,14.00
2019-04-14T16:09:31.919Z,14.23
2019-04-14T16:11:59.685Z,14.16
2019-04-14T16:14:36.843Z,14.29
2019-04-14T16:17:15.859Z,14.04
2019-04-14T16:19:47.473Z,13.76
2019-04-14T16:22:13.585Z,13.29
2019-04-14T16:24:42.630Z,12.95
2019-04-14T16:27:10.363Z,12.80
2019-04-14T16:29:39.477Z,12.39
2019-04-14T16:32:19.395Z,12.11
2019-04-14T16:34:56.642Z,11.89
2019-04-14T16:37:22.739Z,11.64
2019-04-14T16:39:48.522Z,11.67
2019-04-14T16:42:14.606Z,11.89
2019-04-14T16:44:40.721Z,11.93
2019-04-14T16:47:06.506Z,11.65
2019-04-14T16:49:32.305Z,11.70
2019-04-14T16:52:00.006Z,11.94
2019-04-14T16:54:44.211Z,11.68
2019-04-14T16:57:29.225Z,11.56
2019-04-14T16:59:55.220Z,11.46
2019-04-14T17:02:21.313Z,11.27
2019-04-14T17:04:47.092Z,11.08
2019-04-14T17:07:13.169Z,10.94
2019-04-14T17:09:38.986Z,10.89
2019-04-14T17:12:04.795Z,10.88
2019-04-14T17:14:36.303Z,10.72
2019-04-14T17:17:24.538Z,10.60
2019-04-14T17:19:57.155Z,10.53
2019-04-14T17:22:28.145Z,10.53
2019-04-14T17:25:05.198Z,10.42
2019-04-14T17:27:33.196Z,10.16
2019-04-14T17:30:03.781Z,10.10
2019-04-14T17:32:31.468Z,9.93
2019-04-14T17:35:15.914Z,9.67
2019-04-14T17:37:43.888Z,9.68
2019-04-14T17:40:23.963Z,9.41
2019-04-14T17:42:54.185Z,9.33
2019-04-14T17:45:25.096Z,9.34
2019-04-14T17:47:52.803Z,9.31
2019-04-14T17:50:25.416Z,9.32
2019-04-14T17:52:59.327Z,9.34
2019-04-14T17:55:27.417Z,9.29
2019-04-14T17:57:55.240Z,9.22
2019-04-14T18:00:23.252Z,9.08
2019-04-14T18:03:06.079Z,8.99
2019-04-14T18:05:34.062Z,8.90
2019-04-14T18:08:02.040Z,8.82
2019-04-14T18:10:35.596Z,8.66
2019-04-14T18:13:09.362Z,8.65
2019-04-14T18:15:54.244Z,8.50
2019-04-14T18:18:24.730Z,8.45
2019-04-14T18:20:52.469Z,8.23
2019-04-14T18:23:18.289Z,8.06
2019-04-14T18:25:44.381Z,8.04
2019-04-14T18:28:28.576Z,8.05
2019-04-14T18:31:05.241Z,7.99
2019-04-14T18:33:35.846Z,8.01
2019-04-14T18:36:06.893Z,7.98
2019-04-14T18:38:46.982Z,7.84
2019-04-14T18:41:14.986Z,7.78
2019-04-14T18:43:58.133Z,7.70
2019-04-14T18:46:28.873Z,7.57
2019-04-14T18:49:02.235Z,7.54
2019-04-14T18:51:33.142Z,7.51
2019-04-14T18:54:00.835Z,7.49
2019-04-14T18:56:46.804Z,7.41
2019-04-14T18:59:31.511Z,7.39
2019-04-14T19:01:57.362Z,7.27
2019-04-14T19:04:23.191Z,7.29
2019-04-14T19:06:49.233Z,7.21
2019-04-14T19:09:15.088Z,7.05
2019-04-14T19:11:42.813Z,7.05
2019-04-14T19:14:10.562Z,6.97
2019-04-14T19:16:40.019Z,6.95
2019-04-14T19:19:07.688Z,6.87
2019-04-14T19:21:33.522Z,6.85
2019-04-14T19:23:59.603Z,6.85
2019-04-14T19:26:25.480Z,6.77
2019-04-14T19:28:51.293Z,6.77
2019-04-14T19:31:17.082Z,6.72
2019-04-14T19:33:42.903Z,6.73
2019-04-14T19:36:08.703Z,6.70
2019-04-14T19:38:34.517Z,6.69
2019-04-14T19:41:00.579Z,6.61
2019-04-14T19:43:26.401Z,6.52
2019-04-14T19:45:52.489Z,6.48
2019-04-14T19:48:18.535Z,6.36
2019-04-14T19:50:44.351Z,6.30
2019-04-14T19:53:10.230Z,6.24
2019-04-14T19:55:37.355Z,6.21
2019-04-14T19:58:03.387Z,6.19
2019-04-14T20:00:29.245Z,6.16
2019-04-14T20:02:55.114Z,6.15
2019-04-14T20:05:20.909Z,6.15
2019-04-14T20:07:46.803Z,6.11
2019-04-14T20:10:13.110Z,6.02
2019-04-14T20:12:38.921Z,5.91
2019-04-14T20:15:05.418Z,5.90
2019-04-14T20:17:50.109Z,5.89
2019-04-14T20:20:20.798Z,5.93
2019-04-14T20:22:48.577Z,5.86
2019-04-14T20:25:33.712Z,5.85
2019-04-14T20:28:03.525Z,5.86
2019-04-14T20:30:34.016Z,5.81
2019-04-14T20:33:00.050Z,5.77
2019-04-14T20:35:25.853Z,5.76
2019-04-14T20:37:51.742Z,5.68
2019-04-14T20:40:17.676Z,5.55
2019-04-14T20:42:43.739Z,5.46
2019-04-14T20:45:11.763Z,5.37
2019-04-14T20:47:37.856Z,5.38
2019-04-14T20:50:05.647Z,5.27
2019-04-14T20:52:31.457Z,5.22
2019-04-14T20:54:57.528Z,5.23
2019-04-14T20:57:23.476Z,5.13
2019-04-14T20:59:49.563Z,5.02
2019-04-14T21:02:29.449Z,4.96
2019-04-14T21:04:57.166Z,4.88
2019-04-14T21:07:24.884Z,4.84
2019-04-14T21:09:55.343Z,4.83
2019-04-14T21:12:29.052Z,4.88
2019-04-14T21:15:05.838Z,4.96
2019-04-14T21:17:42.093Z,4.94
2019-04-14T21:20:10.272Z,4.97
2019-04-14T21:22:44.636Z,4.93
2019-04-14T21:25:18.512Z,4.93
2019-04-14T21:27:58.451Z,4.77
2019-04-14T21:30:26.153Z,4.68
2019-04-14T21:33:02.748Z,4.59
2019-04-14T21:35:42.658Z,4.57
2019-04-14T21:38:26.893Z,4.58
2019-04-14T21:41:00.648Z,4.43
2019-04-14T21:43:26.445Z,3.62
2019-04-14T21:45:52.524Z,4.42
2019-04-14T21:48:18.547Z,4.48
2019-04-14T21:50:45.258Z,4.42
2019-04-14T21:53:11.375Z,4.37
2019-04-14T21:55:37.406Z,4.33
2019-04-14T21:58:21.842Z,4.32
2019-04-14T22:01:05.101Z,4.35
2019-04-14T22:03:51.295Z,4.34
2019-04-14T22:06:34.113Z,4.35
2019-04-14T22:08:59.943Z,4.27
2019-04-14T22:11:27.733Z,4.27
2019-04-14T22:13:53.904Z,4.27
2019-04-14T22:16:22.716Z,4.23
2019-04-14T22:18:48.823Z,4.22
2019-04-14T22:21:17.799Z,4.25
2019-04-14T22:23:43.902Z,4.22
2019-04-14T22:26:09.705Z,4.20
2019-04-14T22:28:35.846Z,4.22
2019-04-14T22:31:03.912Z,4.13
2019-04-14T22:33:29.737Z,4.13
2019-04-14T22:35:58.741Z,4.07
2019-04-14T22:38:24.536Z,4.08
2019-04-14T22:40:53.934Z,4.07
2019-04-14T22:43:19.861Z,4.16
2019-04-14T22:45:45.662Z,4.14
2019-04-14T22:48:11.486Z,4.03
2019-04-14T22:50:37.580Z,3.94
2019-04-14T22:53:06.199Z,3.84
2019-04-14T22:55:32.094Z,3.92
2019-04-14T22:58:00.954Z,3.88
2019-04-14T23:00:40.947Z,3.84
2019-04-14T23:03:11.228Z,3.79
2019-04-14T23:05:51.229Z,3.73
2019-04-14T23:08:21.742Z,3.65
2019-04-14T23:11:06.701Z,3.65
2019-04-14T23:13:51.415Z,3.56
2019-04-14T23:16:23.221Z,3.53
2019-04-14T23:18:56.581Z,3.53
2019-04-14T23:21:30.312Z,3.49
2019-04-14T23:24:07.546Z,3.45
2019-04-14T23:26:33.357Z,3.46
2019-04-14T23:28:59.185Z,3.59
2019-04-14T23:31:24.982Z,3.57
2019-04-14T23:33:50.794Z,3.57
2019-04-14T23:36:16.591Z,3.55
2019-04-14T23:38:42.408Z,3.53
2019-04-14T23:41:08.232Z,3.46
2019-04-14T23:43:34.270Z,3.38
2019-04-14T23:46:00.473Z,3.32
2019-04-14T23:48:26.539Z,3.33
2019-04-14T23:50:52.365Z,3.36
2019-04-14T23:53:18.458Z,3.39
2019-04-14T23:55:44.284Z,3.34
2019-04-14T23:58:10.125Z,3.23
